sensor_id;sensor_type;location;lat;lon;timestamp;temperature;humidity
15296;DHT22;7749;49.964;7.890;2024-03-02T00:00:56;4.60;99.90
15296;DHT22;7749;49.964;7.890;2024-03-02T00:03:23;4.60;99.90
15296;DHT22;7749;49.964;7.890;2024-03-02T00:05:52;4.60;99.90
15296;DHT22;7749;49.964;7.890;2024-03-02T00:08:23;4.60;99.90
15296;DHT22;7749;49.964;7.890;2024-03-02T00:10:52;4.60;99.90
15296;DHT22;7749;49.964;7.890;2024-03-02T00:13:23;4.60;99.90
15296;DHT22;7749;49.964;7.890;2024-03-02T00:15:55;4.60;99.90
15296;DHT22;7749;49.964;7.890;2024-03-02T00:18:35;4.70;99.90
15296;DHT22;7749;49.964;7.890;2024-03-02T00:21:03;4.80;99.90
15296;DHT22;7749;49.964;7.890;2024-03-02T00:23:34;4.80;99.90
15296;DHT22;7749;49.964;7.890;2024-03-02T00:26:02;4.90;99.90
15296;DHT22;7749;49.964;7.890;2024-03-02T00:28:36;4.90;99.90
15296;DHT22;7749;49.964;7.890;2024-03-02T00:31:13;5.00;99.90
15296;DHT22;7749;49.964;7.890;2024-03-02T00:36:14;5.10;99.90
15296;DHT22;7749;49.964;7.890;2024-03-02T00:38:48;5.10;99.90
15296;DHT22;7749;49.964;7.890;2024-03-02T00:41:24;5.10;99.90
15296;DHT22;7749;49.964;7.890;2024-03-02T00:46:26;5.20;99.90
15296;DHT22;7749;49.964;7.890;2024-03-02T00:48:56;5.20;99.90
15296;DHT22;7749;49.964;7.890;2024-03-02T00:51:25;5.10;99.90
15296;DHT22;7749;49.964;7.890;2024-03-02T00:53:54;5.10;99.90
15296;DHT22;7749;49.964;7.890;2024-03-02T00:56:27;5.10;99.90
15296;DHT22;7749;49.964;7.890;2024-03-02T00:58:54;5.10;99.90
15296;DHT22;7749;49.964;7.890;2024-03-02T01:01:22;5.20;99.90
15296;DHT22;7749;49.964;7.890;2024-03-02T01:03:50;5.30;99.90
15296;DHT22;7749;49.964;7.890;2024-03-02T01:06:18;5.40;99.90
15296;DHT22;7749;49.964;7.890;2024-03-02T01:08:45;5.40;99.90
15296;DHT22;7749;49.964;7.890;2024-03-02T01:11:14;5.40;99.90
15296;DHT22;7749;49.964;7.890;2024-03-02T01:13:42;5.50;99.90
15296;DHT22;7749;49.964;7.890;2024-03-02T01:16:09;5.50;99.90
15296;DHT22;7749;49.964;7.890;2024-03-02T01:18:36;5.40;99.90
15296;DHT22;7749;49.964;7.890;2024-03-02T01:21:04;5.30;99.90
15296;DHT22;7749;49.964;7.890;2024-03-02T01:23:31;5.30;99.90
15296;DHT22;7749;49.964;7.890;2024-03-02T01:25:59;5.30;99.90
15296;DHT22;7749;49.964;7.890;2024-03-02T01:28:26;5.20;99.90
15296;DHT22;7749;49.964;7.890;2024-03-02T01:30:53;5.20;99.90
15296;DHT22;7749;49.964;7.890;2024-03-02T01:33:21;5.10;99.90
15296;DHT22;7749;49.964;7.890;2024-03-02T01:35:48;5.10;99.90
15296;DHT22;7749;49.964;7.890;2024-03-02T01:38:16;5.00;99.90
15296;DHT22;7749;49.964;7.890;2024-03-02T01:40:43;5.00;99.90
15296;DHT22;7749;49.964;7.890;2024-03-02T01:43:11;4.90;99.90
15296;DHT22;7749;49.964;7.890;2024-03-02T01:45:39;4.90;99.90
15296;DHT22;7749;49.964;7.890;2024-03-02T01:48:07;4.90;99.90
15296;DHT22;7749;49.964;7.890;2024-03-02T01:50:35;4.90;99.90
15296;DHT22;7749;49.964;7.890;2024-03-02T01:53:03;4.90;99.90
15296;DHT22;7749;49.964;7.890;2024-03-02T01:55:31;4.90;99.90
15296;DHT22;7749;49.964;7.890;2024-03-02T01:58:00;4.90;99.90
15296;DHT22;7749;49.964;7.890;2024-03-02T02:00:27;4.90;99.90
15296;DHT22;7749;49.964;7.890;2024-03-02T02:02:55;4.90;99.90
15296;DHT22;7749;49.964;7.890;2024-03-02T02:05:23;4.90;99.90
15296;DHT22;7749;49.964;7.890;2024-03-02T02:07:52;4.90;99.90
15296;DHT22;7749;49.964;7.890;2024-03-02T02:10:19;4.90;99.90
15296;DHT22;7749;49.964;7.890;2024-03-02T02:12:47;4.80;99.90
15296;DHT22;7749;49.964;7.890;2024-03-02T02:15:30;4.80;99.90
15296;DHT22;7749;49.964;7.890;2024-03-02T02:17:59;4.90;99.90
15296;DHT22;7749;49.964;7.890;2024-03-02T02:20:27;4.90;99.90
15296;DHT22;7749;49.964;7.890;2024-03-02T02:22:58;4.90;99.90
15296;DHT22;7749;49.964;7.890;2024-03-02T02:25:27;4.80;99.90
15296;DHT22;7749;49.964;7.890;2024-03-02T02:27:55;4.80;99.90
15296;DHT22;7749;49.964;7.890;2024-03-02T02:30:26;4.80;99.90
15296;DHT22;7749;49.964;7.890;2024-03-02T02:32:54;4.70;99.90
15296;DHT22;7749;49.964;7.890;2024-03-02T02:35:22;4.60;99.90
15296;DHT22;7749;49.964;7.890;2024-03-02T02:37:52;4.60;99.90
15296;DHT22;7749;49.964;7.890;2024-03-02T02:40:21;4.60;99.90
15296;DHT22;7749;49.964;7.890;2024-03-02T02:42:51;4.50;99.90
15296;DHT22;7749;49.964;7.890;2024-03-02T02:45:21;4.50;99.90
15296;DHT22;7749;49.964;7.890;2024-03-02T02:47:49;4.50;99.90
15296;DHT22;7749;49.964;7.890;2024-03-02T02:50:16;4.50;99.90
15296;DHT22;7749;49.964;7.890;2024-03-02T02:52:44;4.50;99.90
15296;DHT22;7749;49.964;7.890;2024-03-02T02:55:12;4.50;99.90
15296;DHT22;7749;49.964;7.890;2024-03-02T02:57:41;4.50;99.90
15296;DHT22;7749;49.964;7.890;2024-03-02T03:00:13;4.50;99.90
15296;DHT22;7749;49.964;7.890;2024-03-02T03:02:47;4.40;99.90
15296;DHT22;7749;49.964;7.890;2024-03-02T03:05:17;4.40;99.90
15296;DHT22;7749;49.964;7.890;2024-03-02T03:07:45;4.40;99.90
15296;DHT22;7749;49.964;7.890;2024-03-02T03:10:13;4.40;99.90
15296;DHT22;7749;49.964;7.890;2024-03-02T03:12:42;4.40;99.90
15296;DHT22;7749;49.964;7.890;2024-03-02T03:15:11;4.30;99.90
15296;DHT22;7749;49.964;7.890;2024-03-02T03:17:40;4.40;99.90
15296;DHT22;7749;49.964;7.890;2024-03-02T03:20:08;4.30;99.90
15296;DHT22;7749;49.964;7.890;2024-03-02T03:22:38;4.40;99.90
15296;DHT22;7749;49.964;7.890;2024-03-02T03:25:06;4.50;99.90
15296;DHT22;7749;49.964;7.890;2024-03-02T03:27:36;4.50;99.90
15296;DHT22;7749;49.964;7.890;2024-03-02T03:30:04;4.50;99.90
15296;DHT22;7749;49.964;7.890;2024-03-02T03:32:34;4.50;99.90
15296;DHT22;7749;49.964;7.890;2024-03-02T03:35:01;4.50;99.90
15296;DHT22;7749;49.964;7.890;2024-03-02T03:37:29;4.50;99.90
15296;DHT22;7749;49.964;7.890;2024-03-02T03:40:02;4.40;99.90
15296;DHT22;7749;49.964;7.890;2024-03-02T03:42:30;4.40;99.90
15296;DHT22;7749;49.964;7.890;2024-03-02T03:44:57;4.40;99.90
15296;DHT22;7749;49.964;7.890;2024-03-02T03:47:25;4.40;99.90
15296;DHT22;7749;49.964;7.890;2024-03-02T03:49:52;4.40;99.90
15296;DHT22;7749;49.964;7.890;2024-03-02T03:52:19;4.50;99.90
15296;DHT22;7749;49.964;7.890;2024-03-02T03:54:48;4.50;99.90
15296;DHT22;7749;49.964;7.890;2024-03-02T03:57:16;4.50;99.90
15296;DHT22;7749;49.964;7.890;2024-03-02T03:59:43;4.40;99.90
15296;DHT22;7749;49.964;7.890;2024-03-02T04:02:11;4.30;99.90
15296;DHT22;7749;49.964;7.890;2024-03-02T04:04:40;4.20;99.90
15296;DHT22;7749;49.964;7.890;2024-03-02T04:07:07;4.10;99.90
15296;DHT22;7749;49.964;7.890;2024-03-02T04:09:34;4.10;99.90
15296;DHT22;7749;49.964;7.890;2024-03-02T04:12:02;4.10;99.90
15296;DHT22;7749;49.964;7.890;2024-03-02T04:14:29;4.20;99.90
15296;DHT22;7749;49.964;7.890;2024-03-02T04:16:57;4.10;99.90
15296;DHT22;7749;49.964;7.890;2024-03-02T04:19:24;4.20;99.90
15296;DHT22;7749;49.964;7.890;2024-03-02T04:21:52;4.20;99.90
15296;DHT22;7749;49.964;7.890;2024-03-02T04:24:19;4.20;99.90
15296;DHT22;7749;49.964;7.890;2024-03-02T04:26:46;4.20;99.90
15296;DHT22;7749;49.964;7.890;2024-03-02T04:29:13;4.20;99.90
15296;DHT22;7749;49.964;7.890;2024-03-02T04:31:41;4.30;99.90
15296;DHT22;7749;49.964;7.890;2024-03-02T04:34:08;4.40;99.90
15296;DHT22;7749;49.964;7.890;2024-03-02T04:36:36;4.50;99.90
15296;DHT22;7749;49.964;7.890;2024-03-02T04:39:04;4.50;99.90
15296;DHT22;7749;49.964;7.890;2024-03-02T04:41:31;4.60;99.90
15296;DHT22;7749;49.964;7.890;2024-03-02T04:43:59;4.70;99.90
15296;DHT22;7749;49.964;7.890;2024-03-02T04:46:26;4.70;99.90
15296;DHT22;7749;49.964;7.890;2024-03-02T04:48:53;4.60;99.90
15296;DHT22;7749;49.964;7.890;2024-03-02T04:51:24;4.60;99.90
15296;DHT22;7749;49.964;7.890;2024-03-02T04:53:51;4.60;99.90
15296;DHT22;7749;49.964;7.890;2024-03-02T04:56:19;4.60;99.90
15296;DHT22;7749;49.964;7.890;2024-03-02T04:58:58;4.70;99.90
15296;DHT22;7749;49.964;7.890;2024-03-02T05:01:26;4.80;99.90
15296;DHT22;7749;49.964;7.890;2024-03-02T05:03:53;4.70;99.90
15296;DHT22;7749;49.964;7.890;2024-03-02T05:06:21;4.80;99.90
15296;DHT22;7749;49.964;7.890;2024-03-02T05:08:48;4.80;99.90
15296;DHT22;7749;49.964;7.890;2024-03-02T05:11:15;4.80;99.90
15296;DHT22;7749;49.964;7.890;2024-03-02T05:14:01;4.80;99.90
15296;DHT22;7749;49.964;7.890;2024-03-02T05:16:29;4.90;99.90
15296;DHT22;7749;49.964;7.890;2024-03-02T05:18:56;5.00;99.90
15296;DHT22;7749;49.964;7.890;2024-03-02T05:21:24;5.10;99.90
15296;DHT22;7749;49.964;7.890;2024-03-02T05:23:51;5.10;99.90
15296;DHT22;7749;49.964;7.890;2024-03-02T05:26:18;5.10;99.90
15296;DHT22;7749;49.964;7.890;2024-03-02T05:28:46;5.10;99.90
15296;DHT22;7749;49.964;7.890;2024-03-02T05:31:15;5.20;99.90
15296;DHT22;7749;49.964;7.890;2024-03-02T05:33:43;5.20;99.90
15296;DHT22;7749;49.964;7.890;2024-03-02T05:36:10;5.20;99.90
15296;DHT22;7749;49.964;7.890;2024-03-02T05:38:38;5.30;99.90
15296;DHT22;7749;49.964;7.890;2024-03-02T05:41:05;5.30;99.90
15296;DHT22;7749;49.964;7.890;2024-03-02T05:43:32;5.40;99.90
15296;DHT22;7749;49.964;7.890;2024-03-02T05:46:00;5.40;99.90
15296;DHT22;7749;49.964;7.890;2024-03-02T05:48:28;5.40;99.90
15296;DHT22;7749;49.964;7.890;2024-03-02T05:50:56;5.40;99.90
15296;DHT22;7749;49.964;7.890;2024-03-02T05:53:23;5.50;99.90
15296;DHT22;7749;49.964;7.890;2024-03-02T05:55:51;5.50;99.90
15296;DHT22;7749;49.964;7.890;2024-03-02T05:58:23;5.60;99.90
15296;DHT22;7749;49.964;7.890;2024-03-02T06:01:09;5.60;99.90
15296;DHT22;7749;49.964;7.890;2024-03-02T06:03:36;5.60;99.90
15296;DHT22;7749;49.964;7.890;2024-03-02T06:06:04;5.60;99.90
15296;DHT22;7749;49.964;7.890;2024-03-02T06:08:31;5.50;99.90
15296;DHT22;7749;49.964;7.890;2024-03-02T06:10:58;5.50;99.90
15296;DHT22;7749;49.964;7.890;2024-03-02T06:13:26;5.50;99.90
15296;DHT22;7749;49.964;7.890;2024-03-02T06:15:53;5.50;99.90
15296;DHT22;7749;49.964;7.890;2024-03-02T06:18:21;5.50;99.90
15296;DHT22;7749;49.964;7.890;2024-03-02T06:20:48;5.50;99.90
15296;DHT22;7749;49.964;7.890;2024-03-02T06:23:16;5.60;99.90
15296;DHT22;7749;49.964;7.890;2024-03-02T06:25:44;5.60;99.90
15296;DHT22;7749;49.964;7.890;2024-03-02T06:28:11;5.70;99.90
15296;DHT22;7749;49.964;7.890;2024-03-02T06:30:38;5.70;99.90
15296;DHT22;7749;49.964;7.890;2024-03-02T06:33:06;5.70;99.90
15296;DHT22;7749;49.964;7.890;2024-03-02T06:35:33;5.70;99.90
15296;DHT22;7749;49.964;7.890;2024-03-02T06:38:02;5.70;99.90
15296;DHT22;7749;49.964;7.890;2024-03-02T06:40:29;5.70;99.90
15296;DHT22;7749;49.964;7.890;2024-03-02T06:42:57;5.80;99.90
15296;DHT22;7749;49.964;7.890;2024-03-02T06:45:24;5.80;99.90
15296;DHT22;7749;49.964;7.890;2024-03-02T06:47:51;5.80;99.90
15296;DHT22;7749;49.964;7.890;2024-03-02T06:50:19;5.80;99.90
15296;DHT22;7749;49.964;7.890;2024-03-02T06:52:46;5.90;99.90
15296;DHT22;7749;49.964;7.890;2024-03-02T06:55:14;5.90;99.90
15296;DHT22;7749;49.964;7.890;2024-03-02T06:57:41;5.90;99.90
15296;DHT22;7749;49.964;7.890;2024-03-02T07:00:09;6.00;99.90
15296;DHT22;7749;49.964;7.890;2024-03-02T07:02:37;6.10;99.90
15296;DHT22;7749;49.964;7.890;2024-03-02T07:05:04;6.10;99.90
15296;DHT22;7749;49.964;7.890;2024-03-02T07:07:34;6.20;99.90
15296;DHT22;7749;49.964;7.890;2024-03-02T07:10:03;6.20;99.90
15296;DHT22;7749;49.964;7.890;2024-03-02T07:12:31;6.30;99.90
15296;DHT22;7749;49.964;7.890;2024-03-02T07:14:59;6.30;99.90
15296;DHT22;7749;49.964;7.890;2024-03-02T07:17:33;6.30;99.90
15296;DHT22;7749;49.964;7.890;2024-03-02T07:20:00;6.30;99.90
15296;DHT22;7749;49.964;7.890;2024-03-02T07:22:27;6.40;99.90
15296;DHT22;7749;49.964;7.890;2024-03-02T07:24:55;6.50;99.90
15296;DHT22;7749;49.964;7.890;2024-03-02T07:27:23;6.50;99.90
15296;DHT22;7749;49.964;7.890;2024-03-02T07:29:50;6.60;99.90
15296;DHT22;7749;49.964;7.890;2024-03-02T07:32:17;6.70;99.90
15296;DHT22;7749;49.964;7.890;2024-03-02T07:34:45;6.70;99.90
15296;DHT22;7749;49.964;7.890;2024-03-02T07:37:12;6.70;99.90
15296;DHT22;7749;49.964;7.890;2024-03-02T07:39:39;6.80;99.90
15296;DHT22;7749;49.964;7.890;2024-03-02T07:42:07;6.80;99.90
15296;DHT22;7749;49.964;7.890;2024-03-02T07:44:34;6.80;99.90
15296;DHT22;7749;49.964;7.890;2024-03-02T07:47:02;6.90;99.90
15296;DHT22;7749;49.964;7.890;2024-03-02T07:49:29;7.00;99.90
15296;DHT22;7749;49.964;7.890;2024-03-02T07:51:56;7.10;99.90
15296;DHT22;7749;49.964;7.890;2024-03-02T07:54:24;7.30;99.90
15296;DHT22;7749;49.964;7.890;2024-03-02T07:56:52;7.40;99.90
15296;DHT22;7749;49.964;7.890;2024-03-02T07:59:19;7.40;99.90
15296;DHT22;7749;49.964;7.890;2024-03-02T08:01:49;7.50;99.90
15296;DHT22;7749;49.964;7.890;2024-03-02T08:04:17;7.50;99.90
15296;DHT22;7749;49.964;7.890;2024-03-02T08:06:45;7.60;99.90
15296;DHT22;7749;49.964;7.890;2024-03-02T08:09:12;7.60;99.90
15296;DHT22;7749;49.964;7.890;2024-03-02T08:11:40;7.70;99.90
15296;DHT22;7749;49.964;7.890;2024-03-02T08:14:07;7.80;99.90
15296;DHT22;7749;49.964;7.890;2024-03-02T08:16:35;7.90;99.90
15296;DHT22;7749;49.964;7.890;2024-03-02T08:19:02;8.00;99.90
15296;DHT22;7749;49.964;7.890;2024-03-02T08:21:31;8.10;99.90
15296;DHT22;7749;49.964;7.890;2024-03-02T08:23:59;8.20;99.90
15296;DHT22;7749;49.964;7.890;2024-03-02T08:26:27;8.20;99.90
15296;DHT22;7749;49.964;7.890;2024-03-02T08:28:58;8.30;99.90
15296;DHT22;7749;49.964;7.890;2024-03-02T08:31:26;8.40;99.90
15296;DHT22;7749;49.964;7.890;2024-03-02T08:33:53;8.50;99.90
15296;DHT22;7749;49.964;7.890;2024-03-02T08:36:20;8.50;99.90
15296;DHT22;7749;49.964;7.890;2024-03-02T08:38:49;8.60;99.90
15296;DHT22;7749;49.964;7.890;2024-03-02T08:41:17;8.70;99.90
15296;DHT22;7749;49.964;7.890;2024-03-02T08:43:45;8.80;99.90
15296;DHT22;7749;49.964;7.890;2024-03-02T08:46:13;8.90;99.90
15296;DHT22;7749;49.964;7.890;2024-03-02T08:48:41;9.00;99.90
15296;DHT22;7749;49.964;7.890;2024-03-02T08:51:08;9.00;99.90
15296;DHT22;7749;49.964;7.890;2024-03-02T08:53:37;8.80;99.90
15296;DHT22;7749;49.964;7.890;2024-03-02T08:56:06;8.80;99.90
15296;DHT22;7749;49.964;7.890;2024-03-02T08:58:33;8.90;99.90
15296;DHT22;7749;49.964;7.890;2024-03-02T09:01:01;8.90;99.90
15296;DHT22;7749;49.964;7.890;2024-03-02T09:03:28;9.00;99.90
15296;DHT22;7749;49.964;7.890;2024-03-02T09:05:56;9.20;99.90
15296;DHT22;7749;49.964;7.890;2024-03-02T09:08:25;9.30;99.90
15296;DHT22;7749;49.964;7.890;2024-03-02T09:10:52;9.50;99.90
15296;DHT22;7749;49.964;7.890;2024-03-02T09:13:20;9.80;99.90
15296;DHT22;7749;49.964;7.890;2024-03-02T09:15:48;10.00;99.90
15296;DHT22;7749;49.964;7.890;2024-03-02T09:18:15;10.10;99.90
15296;DHT22;7749;49.964;7.890;2024-03-02T09:20:43;10.10;99.90
15296;DHT22;7749;49.964;7.890;2024-03-02T09:23:10;10.10;99.90
15296;DHT22;7749;49.964;7.890;2024-03-02T09:25:38;10.10;99.90
15296;DHT22;7749;49.964;7.890;2024-03-02T09:28:05;10.20;99.90
15296;DHT22;7749;49.964;7.890;2024-03-02T09:30:33;10.30;99.90
15296;DHT22;7749;49.964;7.890;2024-03-02T09:33:00;10.50;99.90
15296;DHT22;7749;49.964;7.890;2024-03-02T09:35:30;10.60;99.90
15296;DHT22;7749;49.964;7.890;2024-03-02T09:37:58;10.50;99.90
15296;DHT22;7749;49.964;7.890;2024-03-02T09:40:25;10.60;99.90
15296;DHT22;7749;49.964;7.890;2024-03-02T09:42:54;10.70;99.90
15296;DHT22;7749;49.964;7.890;2024-03-02T09:45:24;10.70;99.90
15296;DHT22;7749;49.964;7.890;2024-03-02T09:47:51;10.80;99.90
15296;DHT22;7749;49.964;7.890;2024-03-02T09:50:19;10.90;99.90
15296;DHT22;7749;49.964;7.890;2024-03-02T09:52:49;10.80;99.90
15296;DHT22;7749;49.964;7.890;2024-03-02T09:55:19;10.90;99.90
15296;DHT22;7749;49.964;7.890;2024-03-02T09:57:47;11.00;99.90
15296;DHT22;7749;49.964;7.890;2024-03-02T10:00:16;11.00;99.90
15296;DHT22;7749;49.964;7.890;2024-03-02T10:02:44;11.30;99.90
15296;DHT22;7749;49.964;7.890;2024-03-02T10:05:12;11.40;99.90
15296;DHT22;7749;49.964;7.890;2024-03-02T10:07:39;11.50;99.90
15296;DHT22;7749;49.964;7.890;2024-03-02T10:10:14;11.50;99.90
15296;DHT22;7749;49.964;7.890;2024-03-02T10:12:42;11.40;99.90
15296;DHT22;7749;49.964;7.890;2024-03-02T10:15:09;11.40;99.90
15296;DHT22;7749;49.964;7.890;2024-03-02T10:17:37;11.30;99.90
15296;DHT22;7749;49.964;7.890;2024-03-02T10:20:25;11.10;99.90
15296;DHT22;7749;49.964;7.890;2024-03-02T10:22:52;11.10;99.90
15296;DHT22;7749;49.964;7.890;2024-03-02T10:25:30;11.00;99.90
15296;DHT22;7749;49.964;7.890;2024-03-02T10:28:13;11.00;99.90
15296;DHT22;7749;49.964;7.890;2024-03-02T10:30:43;11.10;99.90
15296;DHT22;7749;49.964;7.890;2024-03-02T10:33:11;11.10;99.90
15296;DHT22;7749;49.964;7.890;2024-03-02T10:35:38;11.00;99.90
15296;DHT22;7749;49.964;7.890;2024-03-02T10:38:06;11.00;99.90
15296;DHT22;7749;49.964;7.890;2024-03-02T10:40:34;11.10;99.90
15296;DHT22;7749;49.964;7.890;2024-03-02T10:43:02;11.20;99.90
15296;DHT22;7749;49.964;7.890;2024-03-02T10:45:33;11.00;99.90
15296;DHT22;7749;49.964;7.890;2024-03-02T10:48:02;11.00;99.90
15296;DHT22;7749;49.964;7.890;2024-03-02T10:50:30;11.20;99.90
15296;DHT22;7749;49.964;7.890;2024-03-02T10:53:03;11.30;99.90
15296;DHT22;7749;49.964;7.890;2024-03-02T10:55:58;11.50;99.90
15296;DHT22;7749;49.964;7.890;2024-03-02T10:58:32;11.50;99.90
15296;DHT22;7749;49.964;7.890;2024-03-02T11:01:03;11.80;99.90
15296;DHT22;7749;49.964;7.890;2024-03-02T11:03:36;11.80;99.90
15296;DHT22;7749;49.964;7.890;2024-03-02T11:06:07;12.00;99.90
15296;DHT22;7749;49.964;7.890;2024-03-02T11:08:38;12.30;99.90
15296;DHT22;7749;49.964;7.890;2024-03-02T11:11:08;12.60;99.90
15296;DHT22;7749;49.964;7.890;2024-03-02T11:13:42;13.30;99.90
15296;DHT22;7749;49.964;7.890;2024-03-02T11:18:49;16.30;55.70
15296;DHT22;7749;49.964;7.890;2024-03-02T11:21:17;17.60;1.00
15296;DHT22;7749;49.964;7.890;2024-03-02T11:23:44;18.60;1.00
15296;DHT22;7749;49.964;7.890;2024-03-02T11:26:19;19.10;1.00
15296;DHT22;7749;49.964;7.890;2024-03-02T11:28:47;20.60;1.00
15296;DHT22;7749;49.964;7.890;2024-03-02T11:31:14;21.30;99.90
15296;DHT22;7749;49.964;7.890;2024-03-02T11:33:42;21.80;99.90
15296;DHT22;7749;49.964;7.890;2024-03-02T11:36:10;22.00;99.90
15296;DHT22;7749;49.964;7.890;2024-03-02T11:38:43;22.80;99.90
15296;DHT22;7749;49.964;7.890;2024-03-02T11:41:10;23.50;99.90
15296;DHT22;7749;49.964;7.890;2024-03-02T11:43:39;24.60;29.30
15296;DHT22;7749;49.964;7.890;2024-03-02T11:46:07;25.30;1.00
15296;DHT22;7749;49.964;7.890;2024-03-02T11:48:36;25.80;1.00
15296;DHT22;7749;49.964;7.890;2024-03-02T11:51:07;25.30;1.00
15296;DHT22;7749;49.964;7.890;2024-03-02T11:53:38;25.10;1.00
15296;DHT22;7749;49.964;7.890;2024-03-02T11:56:07;24.70;1.00
15296;DHT22;7749;49.964;7.890;2024-03-02T11:58:37;25.00;1.00
15296;DHT22;7749;49.964;7.890;2024-03-02T12:01:05;25.60;1.00
15296;DHT22;7749;49.964;7.890;2024-03-02T12:03:34;25.60;1.00
15296;DHT22;7749;49.964;7.890;2024-03-02T12:06:02;25.30;1.00
15296;DHT22;7749;49.964;7.890;2024-03-02T12:08:30;24.70;1.00
15296;DHT22;7749;49.964;7.890;2024-03-02T12:11:00;23.30;1.00
15296;DHT22;7749;49.964;7.890;2024-03-02T12:13:29;23.70;1.00
15296;DHT22;7749;49.964;7.890;2024-03-02T12:15:57;23.60;1.00
15296;DHT22;7749;49.964;7.890;2024-03-02T12:18:25;22.10;1.00
15296;DHT22;7749;49.964;7.890;2024-03-02T12:20:53;21.40;1.00
15296;DHT22;7749;49.964;7.890;2024-03-02T12:23:25;21.20;1.00
15296;DHT22;7749;49.964;7.890;2024-03-02T12:25:53;21.20;1.00
15296;DHT22;7749;49.964;7.890;2024-03-02T12:28:20;21.70;1.00
15296;DHT22;7749;49.964;7.890;2024-03-02T12:30:48;21.80;1.00
15296;DHT22;7749;49.964;7.890;2024-03-02T12:33:17;22.90;1.00
15296;DHT22;7749;49.964;7.890;2024-03-02T12:35:44;23.40;1.00
15296;DHT22;7749;49.964;7.890;2024-03-02T12:38:12;24.00;1.00
15296;DHT22;7749;49.964;7.890;2024-03-02T12:40:40;24.40;1.00
15296;DHT22;7749;49.964;7.890;2024-03-02T12:43:08;24.40;1.00
15296;DHT22;7749;49.964;7.890;2024-03-02T12:45:35;24.20;1.00
15296;DHT22;7749;49.964;7.890;2024-03-02T12:48:05;23.90;1.00
15296;DHT22;7749;49.964;7.890;2024-03-02T12:50:33;24.10;1.00
15296;DHT22;7749;49.964;7.890;2024-03-02T12:53:01;23.50;1.00
15296;DHT22;7749;49.964;7.890;2024-03-02T12:55:29;22.20;1.00
15296;DHT22;7749;49.964;7.890;2024-03-02T12:57:57;21.00;1.00
15296;DHT22;7749;49.964;7.890;2024-03-02T13:00:26;20.80;1.00
15296;DHT22;7749;49.964;7.890;2024-03-02T13:02:56;21.00;1.00
15296;DHT22;7749;49.964;7.890;2024-03-02T13:05:32;20.70;1.00
15296;DHT22;7749;49.964;7.890;2024-03-02T13:08:00;21.40;1.00
15296;DHT22;7749;49.964;7.890;2024-03-02T13:10:28;21.70;1.00
15296;DHT22;7749;49.964;7.890;2024-03-02T13:12:56;22.20;1.00
15296;DHT22;7749;49.964;7.890;2024-03-02T13:15:26;22.50;1.00
15296;DHT22;7749;49.964;7.890;2024-03-02T13:17:58;22.30;1.00
15296;DHT22;7749;49.964;7.890;2024-03-02T13:20:31;21.20;1.00
15296;DHT22;7749;49.964;7.890;2024-03-02T13:22:59;20.60;1.00
15296;DHT22;7749;49.964;7.890;2024-03-02T13:25:26;20.90;1.00
15296;DHT22;7749;49.964;7.890;2024-03-02T13:27:57;20.60;1.00
15296;DHT22;7749;49.964;7.890;2024-03-02T13:30:25;20.50;1.00
15296;DHT22;7749;49.964;7.890;2024-03-02T13:32:53;20.50;1.00
15296;DHT22;7749;49.964;7.890;2024-03-02T13:35:21;20.60;1.00
15296;DHT22;7749;49.964;7.890;2024-03-02T13:37:48;21.00;1.00
15296;DHT22;7749;49.964;7.890;2024-03-02T13:40:17;21.70;1.00
15296;DHT22;7749;49.964;7.890;2024-03-02T13:42:48;22.70;1.00
15296;DHT22;7749;49.964;7.890;2024-03-02T13:45:16;23.80;1.00
15296;DHT22;7749;49.964;7.890;2024-03-02T13:47:45;24.60;1.00
15296;DHT22;7749;49.964;7.890;2024-03-02T13:50:12;23.80;1.00
15296;DHT22;7749;49.964;7.890;2024-03-02T13:52:40;24.10;1.00
15296;DHT22;7749;49.964;7.890;2024-03-02T13:55:07;25.10;1.00
15296;DHT22;7749;49.964;7.890;2024-03-02T13:57:35;25.80;1.00
15296;DHT22;7749;49.964;7.890;2024-03-02T14:00:03;26.70;1.00
15296;DHT22;7749;49.964;7.890;2024-03-02T14:02:37;26.60;1.00
15296;DHT22;7749;49.964;7.890;2024-03-02T14:05:05;26.70;1.00
15296;DHT22;7749;49.964;7.890;2024-03-02T14:07:32;26.40;1.00
15296;DHT22;7749;49.964;7.890;2024-03-02T14:10:00;25.60;1.00
15296;DHT22;7749;49.964;7.890;2024-03-02T14:12:27;26.40;1.00
15296;DHT22;7749;49.964;7.890;2024-03-02T14:14:55;26.80;1.00
15296;DHT22;7749;49.964;7.890;2024-03-02T14:17:25;26.50;1.00
15296;DHT22;7749;49.964;7.890;2024-03-02T14:19:52;24.80;1.00
15296;DHT22;7749;49.964;7.890;2024-03-02T14:22:24;22.70;1.00
15296;DHT22;7749;49.964;7.890;2024-03-02T14:24:51;20.90;1.00
15296;DHT22;7749;49.964;7.890;2024-03-02T14:27:19;20.40;1.00
15296;DHT22;7749;49.964;7.890;2024-03-02T14:30:05;20.30;1.00
15296;DHT22;7749;49.964;7.890;2024-03-02T14:32:32;20.00;1.00
15296;DHT22;7749;49.964;7.890;2024-03-02T14:35:00;19.80;1.00
15296;DHT22;7749;49.964;7.890;2024-03-02T14:37:27;19.50;1.00
15296;DHT22;7749;49.964;7.890;2024-03-02T14:39:55;18.70;1.00
15296;DHT22;7749;49.964;7.890;2024-03-02T14:42:22;18.00;1.00
15296;DHT22;7749;49.964;7.890;2024-03-02T14:44:50;17.40;1.00
15296;DHT22;7749;49.964;7.890;2024-03-02T14:47:17;17.10;1.00
15296;DHT22;7749;49.964;7.890;2024-03-02T14:49:44;16.90;1.00
15296;DHT22;7749;49.964;7.890;2024-03-02T14:52:12;16.80;1.00
15296;DHT22;7749;49.964;7.890;2024-03-02T14:54:40;16.60;45.60
15296;DHT22;7749;49.964;7.890;2024-03-02T14:57:07;16.40;56.20
15296;DHT22;7749;49.964;7.890;2024-03-02T14:59:35;16.20;78.40
15296;DHT22;7749;49.964;7.890;2024-03-02T15:02:03;16.00;99.90
15296;DHT22;7749;49.964;7.890;2024-03-02T15:04:30;15.90;99.90
15296;DHT22;7749;49.964;7.890;2024-03-02T15:06:58;16.00;99.90
15296;DHT22;7749;49.964;7.890;2024-03-02T15:09:25;16.00;99.90
15296;DHT22;7749;49.964;7.890;2024-03-02T15:11:53;15.80;99.90
15296;DHT22;7749;49.964;7.890;2024-03-02T15:14:20;15.70;99.90
15296;DHT22;7749;49.964;7.890;2024-03-02T15:16:48;15.70;99.90
15296;DHT22;7749;49.964;7.890;2024-03-02T15:19:16;15.70;99.90
15296;DHT22;7749;49.964;7.890;2024-03-02T15:21:43;15.70;99.90
15296;DHT22;7749;49.964;7.890;2024-03-02T15:24:11;15.70;99.90
15296;DHT22;7749;49.964;7.890;2024-03-02T15:26:39;15.60;1.00
15296;DHT22;7749;49.964;7.890;2024-03-02T15:29:06;15.60;1.00
15296;DHT22;7749;49.964;7.890;2024-03-02T15:31:33;15.60;1.00
15296;DHT22;7749;49.964;7.890;2024-03-02T15:34:01;15.60;1.00
15296;DHT22;7749;49.964;7.890;2024-03-02T15:36:28;15.80;1.00
15296;DHT22;7749;49.964;7.890;2024-03-02T15:38:55;15.80;1.00
15296;DHT22;7749;49.964;7.890;2024-03-02T15:41:24;15.80;1.00
15296;DHT22;7749;49.964;7.890;2024-03-02T15:43:51;15.70;1.00
15296;DHT22;7749;49.964;7.890;2024-03-02T15:46:18;15.70;1.00
15296;DHT22;7749;49.964;7.890;2024-03-02T15:48:46;15.60;1.00
15296;DHT22;7749;49.964;7.890;2024-03-02T15:51:13;15.50;1.00
15296;DHT22;7749;49.964;7.890;2024-03-02T15:53:41;15.40;1.00
15296;DHT22;7749;49.964;7.890;2024-03-02T15:56:08;15.30;1.00
15296;DHT22;7749;49.964;7.890;2024-03-02T15:58:36;15.20;1.00
15296;DHT22;7749;49.964;7.890;2024-03-02T16:01:05;15.10;1.00
15296;DHT22;7749;49.964;7.890;2024-03-02T16:03:32;15.00;1.00
15296;DHT22;7749;49.964;7.890;2024-03-02T16:06:00;14.90;1.00
15296;DHT22;7749;49.964;7.890;2024-03-02T16:08:28;14.80;1.00
15296;DHT22;7749;49.964;7.890;2024-03-02T16:10:55;14.70;1.00
15296;DHT22;7749;49.964;7.890;2024-03-02T16:13:24;14.60;1.00
15296;DHT22;7749;49.964;7.890;2024-03-02T16:15:52;14.60;1.00